»·PEaware :: N1SC KMHV-KVIS

N1SC :: KMHV-KVIS

FLIGHT INFORMATION

Flight Status: Arrived
Operator: Privately registered:
United States
More flights under this callsign
Pilot: Anonymous 10181 (10181)
Aircraft: Unknown
(C82S)
More flights by this aircraft type
Origin: KMHV Mojave
United States
Destination: KVIS Visalia Mun
United States
More flights between these airports :: More routes between these airports
Route: JERID5 JERID V197 AMONT V459 TTE
File this flight plan on PilotEdge
Remarks: Happy Thursday! <3
Altitude:
(Current/Filed)
10,000ft
Speed:
(Current/Filed)
160kts
Departed: 03-Aug-23 03:46 PM
Arrived: 03-Aug-23 04:42 PM
Distance/Time
Traveled:
97nm/0:56
Distance/Time
To Go:
Arrived

Flight Plot

Page will automatically refresh every two minutes.

Flight plan parsing failed; only flown route is shown


Map Options




Map Legend


Flown Route
Filed Route
Departure Airport
Arrival Airport
Navaid (VOR, NDB)
Fix

Horizontal Profiles

Position Reports

Time Latitude Longitude Heading Altitude Ground
Speed
03-Aug-23 15:17 35.057419 -118.150900 92 2755ft 0kts
03-Aug-23 15:18 35.057419 -118.150900 92 2755ft 0kts
03-Aug-23 15:19 35.057419 -118.150900 92 2755ft 0kts
03-Aug-23 15:20 35.057419 -118.150900 92 2755ft 0kts
03-Aug-23 15:21 35.057419 -118.150900 92 2755ft 0kts
03-Aug-23 15:22 35.057419 -118.150900 92 2755ft 0kts
03-Aug-23 15:23 35.057419 -118.150900 92 2755ft 0kts
03-Aug-23 15:24 35.057419 -118.150900 92 2764ft 0kts
03-Aug-23 15:26 35.057419 -118.150900 92 2764ft 0kts
03-Aug-23 15:27 35.057419 -118.150900 92 2764ft 0kts
03-Aug-23 15:28 35.057420 -118.150900 92 2755ft 0kts
03-Aug-23 15:29 35.057420 -118.150900 92 2755ft 0kts
03-Aug-23 15:30 35.057420 -118.150900 92 2755ft 0kts
03-Aug-23 15:31 35.057420 -118.150900 92 2755ft 0kts
03-Aug-23 15:32 35.057420 -118.150900 92 2755ft 0kts
03-Aug-23 15:33 35.057420 -118.150900 92 2755ft 0kts
03-Aug-23 15:34 35.057420 -118.150900 92 2755ft 0kts
03-Aug-23 15:35 35.057420 -118.150900 92 2755ft 0kts
03-Aug-23 15:36 35.057420 -118.150900 92 2755ft 0kts
03-Aug-23 15:37 35.057478 -118.150719 2 2754ft 0kts
03-Aug-23 15:38 35.057641 -118.149844 89 2753ft 11kts
03-Aug-23 15:39 35.057620 -118.147846 93 2749ft 0kts
03-Aug-23 15:40 35.057618 -118.147790 90 2749ft 0kts
03-Aug-23 15:41 35.057618 -118.147765 90 2749ft 0kts
03-Aug-23 15:42 35.057618 -118.147728 90 2749ft 0kts
03-Aug-23 15:43 35.057618 -118.147728 90 2749ft 0kts
03-Aug-23 15:44 35.057618 -118.147728 90 2749ft 0kts
03-Aug-23 15:45 35.058466 -118.142513 356 2739ft 22kts
03-Aug-23 15:46 35.059309 -118.153051 270 2943ft 69kts
03-Aug-23 15:47 35.056929 -118.177358 267 4044ft 70kts
03-Aug-23 15:48 35.051334 -118.198774 225 4704ft 80kts
03-Aug-23 15:49 35.031191 -118.212656 227 5511ft 82kts
03-Aug-23 15:49 35.015565 -118.226366 234 6154ft 81kts
03-Aug-23 15:50 35.002724 -118.248653 235 6662ft 95kts
03-Aug-23 15:52 34.974814 -118.275309 225 7119ft 110kts
03-Aug-23 15:53 34.951376 -118.299020 227 7568ft 108kts
03-Aug-23 15:54 34.927865 -118.323209 227 8075ft 113kts
03-Aug-23 15:54 34.907678 -118.343900 226 8454ft 112kts
03-Aug-23 15:55 34.884472 -118.367460 225 8921ft 106kts
03-Aug-23 15:56 34.884733 -118.395528 314 9444ft 107kts
03-Aug-23 15:58 34.910338 -118.426955 312 9978ft 126kts
03-Aug-23 15:59 34.936849 -118.460672 313 9979ft 142kts
03-Aug-23 15:59 34.959547 -118.490252 312 9987ft 142kts
03-Aug-23 16:00 34.986693 -118.525881 313 10031ft 147kts
03-Aug-23 16:01 35.014649 -118.562531 312 10042ft 147kts
03-Aug-23 16:02 35.044180 -118.597504 318 10022ft 149kts
03-Aug-23 16:03 35.074667 -118.631313 316 9999ft 146kts
03-Aug-23 16:04 35.103885 -118.664844 310 9987ft 144kts
03-Aug-23 16:05 35.132879 -118.698764 313 9971ft 144kts
03-Aug-23 16:06 35.162551 -118.731763 313 9957ft 144kts
03-Aug-23 16:07 35.195293 -118.759521 340 9940ft 148kts
03-Aug-23 16:08 35.234853 -118.773799 338 9926ft 148kts
03-Aug-23 16:09 35.274198 -118.788114 339 9883ft 147kts
03-Aug-23 16:10 35.313630 -118.802426 339 9878ft 148kts
03-Aug-23 16:11 35.353268 -118.816815 339 9876ft 148kts
03-Aug-23 16:12 35.392667 -118.831110 339 9877ft 147kts
03-Aug-23 16:13 35.432142 -118.845477 339 9876ft 148kts
03-Aug-23 16:14 35.471825 -118.859939 338 9871ft 149kts
03-Aug-23 16:15 35.511318 -118.874315 339 9879ft 147kts
03-Aug-23 16:16 35.551002 -118.888739 339 9876ft 149kts
03-Aug-23 16:17 35.590837 -118.903204 340 9871ft 148kts
03-Aug-23 16:18 35.630041 -118.917448 340 9970ft 145kts
03-Aug-23 16:19 35.669366 -118.931799 340 10000ft 149kts
03-Aug-23 16:20 35.709088 -118.946263 340 10006ft 149kts
03-Aug-23 16:21 35.749077 -118.960847 340 10005ft 150kts
03-Aug-23 16:22 35.789153 -118.975482 340 10002ft 150kts
03-Aug-23 16:23 35.830180 -118.990521 341 9717ft 164kts
03-Aug-23 16:24 35.875021 -119.006958 342 8918ft 170kts
03-Aug-23 16:25 35.920052 -119.024909 333 8130ft 169kts
03-Aug-23 16:26 35.962275 -119.049759 334 7369ft 167kts
03-Aug-23 16:27 36.004150 -119.074315 335 6623ft 159kts
03-Aug-23 16:28 36.041924 -119.096502 335 5839ft 146kts
03-Aug-23 16:29 36.078518 -119.118016 335 5079ft 143kts
03-Aug-23 16:30 36.110794 -119.137325 329 4290ft 122kts
03-Aug-23 16:31 36.135554 -119.166128 316 3532ft 128kts
03-Aug-23 16:32 36.161262 -119.197739 315 3112ft 125kts
03-Aug-23 16:33 36.185011 -119.227127 315 3148ft 120kts
03-Aug-23 16:34 36.209811 -119.259351 315 2831ft 133kts
03-Aug-23 16:35 36.233323 -119.288936 321 2485ft 114kts
03-Aug-23 16:36 36.254743 -119.313329 320 2061ft 101kts
03-Aug-23 16:37 36.272832 -119.335889 302 1381ft 87kts
03-Aug-23 16:38 36.287950 -119.354572 309 894ft 57kts
03-Aug-23 16:39 36.299516 -119.368816 311 683ft 65kts
03-Aug-23 16:40 36.311855 -119.384494 315 348ft 59kts
03-Aug-23 16:41 36.317251 -119.392479 222 299ft 13kts

Navigation Log

Ident Type
Flight plan parsing failed, navigation log unavailable